Terminal Aerodrome Forecast
Issued by NWS

Home | Current Version | Previous Version | Text Only | Print | Product List | Glossary Off
Versions: 1 2 3 4 5 6 7 8 9 10 11 12 13 14

000
FTUS43 KGLD 200300 AAA
TAFMCK
TAF AMD
KMCK 200329Z 2003/2024 02010KT P6SM VCSH SCT050 BKN090
     FM200600 02007KT P6SM BKN090
     FM201800 06010KT P6SM BKN050=

USA.gov is the U.S. government's official web portal to all federal, state and local government web resources and services.